Time;durP1;ratioP1;P1;durP2;ratioP2;P2;SDS_P1;SDS_P2;PMS_P1;PMS_P2;Temp;Humidity;BMP_temperature;BMP_pressure;BME280_temperature;BME280_humidity;BME280_pressure;Samples;Min_cycle;Max_cycle;Signal;HPM_P1;HPM_P2
2021/05/02 00:00:16;;;;;;;16.57;9.80;;;;;;;;;;4360306;32;20189;-79
2021/05/02 00:02:42;;;;;;;18.80;9.57;;;;;;;;;;4360457;32;20143;-81
2021/05/02 00:05:08;;;;;;;16.87;10.20;;;;;;;;;;4360423;33;20154;-79
2021/05/02 00:07:33;;;;;;;14.60;9.80;;;;;;;;;;4360103;32;20246;-79
2021/05/02 00:09:59;;;;;;;16.07;9.53;;;;;;;;;;4360333;32;20483;-79
2021/05/02 00:12:25;;;;;;;18.20;9.33;;;;;;;;;;4360792;32;20128;-80
2021/05/02 00:14:50;;;;;;;15.93;9.20;;;;;;;;;;4361733;32;20218;-81
2021/05/02 00:17:15;;;;;;;17.50;10.13;;;;;;;;;;4359368;32;20189;-79
2021/05/02 00:19:41;;;;;;;16.83;9.70;;;;;;;;;;4360694;32;20509;-78
2021/05/02 00:22:07;;;;;;;14.23;8.90;;;;;;;;;;4359296;32;20159;-80
2021/05/02 00:24:33;;;;;;;14.93;9.20;;;;;;;;;;4360891;32;20166;-80
2021/05/02 00:26:58;;;;;;;14.37;9.30;;;;;;;;;;4360881;32;20537;-80
2021/05/02 00:29:24;;;;;;;17.17;9.20;;;;;;;;;;4360900;32;20131;-80
2021/05/02 00:31:49;;;;;;;14.13;8.53;;;;;;;;;;4360195;33;20561;-79
2021/05/02 00:34:14;;;;;;;15.17;8.13;;;;;;;;;;4360241;33;20143;-80
2021/05/02 00:36:42;;;;;;;14.60;8.90;;;;;;;;;;4360248;33;20140;-79
2021/05/02 00:39:07;;;;;;;15.10;8.27;;;;;;;;;;4359938;33;20135;-79
2021/05/02 00:41:41;;;;;;;14.23;8.50;;;;;;;;;;4360362;33;20166;-79
2021/05/02 00:44:16;;;;;;;13.17;8.00;;;;;;;;;;4360320;33;20194;-80
2021/05/02 00:46:50;;;;;;;13.63;7.97;;;;;;;;;;4360851;33;20185;-79
2021/05/02 00:49:34;;;;;;;14.30;8.33;;;;;;;;;;4360452;33;20153;-80
2021/05/02 00:52:05;;;;;;;11.03;7.63;;;;;;;;;;4360220;33;20135;-79
2021/05/02 00:54:45;;;;;;;13.80;7.67;;;;;;;;;;4358587;33;20151;-80
2021/05/02 00:57:11;;;;;;;12.93;7.73;;;;;;;;;;4361063;33;20199;-79
2021/05/02 00:59:53;;;;;;;16.70;8.57;;;;;;;;;;4360228;33;20587;-79
2021/05/02 01:02:20;;;;;;;12.80;8.00;;;;;;;;;;4359249;33;20155;-79
2021/05/02 01:04:46;;;;;;;11.63;7.30;;;;;;;;;;4360060;33;20139;-79
2021/05/02 01:07:17;;;;;;;11.33;7.13;;;;;;;;;;4360333;33;20158;-79
2021/05/02 01:09:49;;;;;;;14.27;7.20;;;;;;;;;;4358508;33;20167;-79
2021/05/02 01:12:21;;;;;;;12.60;6.87;;;;;;;;;;4360586;33;20202;-79
2021/05/02 01:14:52;;;;;;;11.33;8.00;;;;;;;;;;4360757;33;20143;-79
2021/05/02 01:17:24;;;;;;;12.77;7.37;;;;;;;;;;4359887;33;20131;-79
2021/05/02 01:19:49;;;;;;;11.23;7.23;;;;;;;;;;4360065;33;20169;-81
2021/05/02 01:22:16;;;;;;;13.00;6.57;;;;;;;;;;4359676;33;20135;-80
2021/05/02 01:24:56;;;;;;;12.83;6.23;;;;;;;;;;4359822;33;20143;-79
2021/05/02 01:27:29;;;;;;;8.77;5.50;;;;;;;;;;4359955;33;20162;-79
2021/05/02 01:29:54;;;;;;;12.77;6.60;;;;;;;;;;4359706;33;20478;-79
2021/05/02 01:32:20;;;;;;;12.23;5.57;;;;;;;;;;4345605;33;20178;-79
2021/05/02 01:34:56;;;;;;;10.73;5.43;;;;;;;;;;4346385;33;20166;-79
2021/05/02 01:37:22;;;;;;;10.93;5.63;;;;;;;;;;4348308;33;20546;-79
2021/05/02 01:39:48;;;;;;;9.70;5.17;;;;;;;;;;4349111;33;20131;-80
2021/05/02 01:42:13;;;;;;;11.33;6.20;;;;;;;;;;4347724;33;20213;-80
2021/05/02 01:44:38;;;;;;;9.70;4.90;;;;;;;;;;4348523;33;20132;-80
2021/05/02 01:47:05;;;;;;;11.63;5.57;;;;;;;;;;4348522;33;20128;-79
2021/05/02 01:49:42;;;;;;;12.40;5.17;;;;;;;;;;4348334;33;20131;-79
2021/05/02 01:52:08;;;;;;;8.73;5.17;;;;;;;;;;4348115;32;20166;-79
2021/05/02 01:54:38;;;;;;;9.73;5.07;;;;;;;;;;4347302;33;20143;-79
2021/05/02 01:57:03;;;;;;;11.97;5.73;;;;;;;;;;4347345;33;20174;-76
2021/05/02 01:59:29;;;;;;;8.30;5.37;;;;;;;;;;4347935;33;20132;-79
2021/05/02 02:01:55;;;;;;;11.37;5.20;;;;;;;;;;4347349;33;20162;-79
2021/05/02 02:04:21;;;;;;;10.47;5.03;;;;;;;;;;4347575;33;20546;-79
2021/05/02 02:06:48;;;;;;;11.60;4.97;;;;;;;;;;4347985;33;20158;-79
2021/05/02 02:09:22;;;;;;;8.07;4.77;;;;;;;;;;4334255;33;20221;-79
2021/05/02 02:11:57;;;;;;;9.73;4.83;;;;;;;;;;4348262;33;20537;-79
2021/05/02 02:14:26;;;;;;;12.07;5.03;;;;;;;;;;4347840;33;20170;-79
2021/05/02 02:16:59;;;;;;;9.53;4.70;;;;;;;;;;4346846;33;20170;-79
2021/05/02 02:19:24;;;;;;;7.57;4.73;;;;;;;;;;4347329;33;20170;-79
2021/05/02 02:21:51;;;;;;;10.20;5.50;;;;;;;;;;4346900;33;20533;-79
2021/05/02 02:24:20;;;;;;;9.43;5.13;;;;;;;;;;4347071;33;20132;-78
2021/05/02 02:26:55;;;;;;;11.20;5.23;;;;;;;;;;4347735;33;20219;-79
2021/05/02 02:29:22;;;;;;;11.60;5.17;;;;;;;;;;4347225;33;20135;-81
2021/05/02 02:31:49;;;;;;;11.30;4.70;;;;;;;;;;4363488;32;20159;-80
2021/05/02 02:34:15;;;;;;;10.07;4.90;;;;;;;;;;4361271;32;20225;-81
2021/05/02 02:36:43;;;;;;;8.03;4.90;;;;;;;;;;4361899;33;20561;-80
2021/05/02 02:39:12;;;;;;;8.97;4.67;;;;;;;;;;4356369;33;20170;-80
2021/05/02 02:41:41;;;;;;;9.87;4.73;;;;;;;;;;4361408;32;20277;-80
2021/05/02 02:44:23;;;;;;;8.30;5.27;;;;;;;;;;4361988;32;20135;-79
2021/05/02 02:46:52;;;;;;;6.83;4.80;;;;;;;;;;4361518;32;20170;-80
2021/05/02 02:49:17;;;;;;;7.93;4.60;;;;;;;;;;4362053;32;20201;-79
2021/05/02 02:51:54;;;;;;;7.63;4.77;;;;;;;;;;4361615;32;20171;-80
2021/05/02 02:54:20;;;;;;;7.03;4.30;;;;;;;;;;4362175;32;20153;-79
2021/05/02 02:56:46;;;;;;;9.60;4.67;;;;;;;;;;4361163;32;20155;-80
2021/05/02 02:59:19;;;;;;;7.43;5.00;;;;;;;;;;4361091;32;20527;-79
2021/05/02 03:04:39;;;;;;;10.53;4.90;;;;;;;;;;4352738;33;20194;-80
2021/05/02 03:07:15;;;;;;;;;;;;;;;;;;;;;
2021/05/02 03:09:41;;;;;;;8.17;5.53;;;;;;;;;;4361656;32;20123;-79
2021/05/02 03:12:31;;;;;;;;;;;;;;;;;;;;;
2021/05/02 03:14:57;;;;;;;10.80;5.40;;;;;;;;;;4361134;32;20167;-79
2021/05/02 03:17:32;;;;;;;9.87;5.83;;;;;;;;;;4361618;32;20228;-79
2021/05/02 03:20:05;;;;;;;9.67;5.33;;;;;;;;;;4360854;32;20196;-79
2021/05/02 03:22:30;;;;;;;9.17;5.23;;;;;;;;;;4360749;33;20150;-79
2021/05/02 03:24:57;;;;;;;11.57;5.93;;;;;;;;;;4360988;32;20135;-79
2021/05/02 03:27:26;;;;;;;12.07;6.10;;;;;;;;;;4369508;32;20828;-79
2021/05/02 03:29:52;;;;;;;11.27;6.00;;;;;;;;;;4353719;33;20444;-79
2021/05/02 03:32:20;;;;;;;19.40;13.70;;;;;;;;;;4360813;32;20205;-79
2021/05/02 03:34:48;;;;;;;10.43;6.13;;;;;;;;;;4360808;32;20155;-79
2021/05/02 03:37:16;;;;;;;11.07;5.50;;;;;;;;;;4360493;32;20250;-79
2021/05/02 03:39:46;;;;;;;12.53;6.33;;;;;;;;;;4361011;33;20134;-79
2021/05/02 03:42:11;;;;;;;9.47;5.37;;;;;;;;;;4356878;32;20152;-80
2021/05/02 03:44:39;;;;;;;11.30;5.60;;;;;;;;;;4360416;32;20594;-80
2021/05/02 03:47:05;;;;;;;10.13;6.30;;;;;;;;;;4361066;33;20165;-80
2021/05/02 03:49:30;;;;;;;7.00;5.30;;;;;;;;;;4360620;32;20517;-80
2021/05/02 03:51:55;;;;;;;7.17;5.07;;;;;;;;;;4361314;32;20158;-80
2021/05/02 03:54:21;;;;;;;8.17;5.03;;;;;;;;;;4360419;32;20127;-79
2021/05/02 03:56:46;;;;;;;8.57;4.93;;;;;;;;;;4361277;32;20130;-80
2021/05/02 03:59:13;;;;;;;9.07;5.40;;;;;;;;;;4360661;32;20479;-80
2021/05/02 04:01:41;;;;;;;8.20;4.37;;;;;;;;;;4360333;32;20145;-80
2021/05/02 04:04:06;;;;;;;8.17;4.67;;;;;;;;;;4346705;33;20177;-80
2021/05/02 04:06:31;;;;;;;8.90;3.97;;;;;;;;;;4360671;33;20132;-79
2021/05/02 04:08:57;;;;;;;7.50;3.67;;;;;;;;;;4360206;32;20261;-79
2021/05/02 04:11:22;;;;;;;9.67;4.40;;;;;;;;;;4360746;32;20241;-79
2021/05/02 04:13:48;;;;;;;8.90;3.53;;;;;;;;;;4360497;33;20127;-79
2021/05/02 04:16:25;;;;;;;5.97;3.57;;;;;;;;;;4359752;33;20584;-79
2021/05/02 04:18:53;;;;;;;10.00;3.87;;;;;;;;;;4360983;32;20153;-79
2021/05/02 04:21:18;;;;;;;7.43;3.43;;;;;;;;;;4360224;32;20128;-80
2021/05/02 04:23:50;;;;;;;9.80;3.23;;;;;;;;;;4346445;33;20581;-79
2021/05/02 04:26:15;;;;;;;7.83;3.50;;;;;;;;;;4360856;32;20127;-79
2021/05/02 04:28:40;;;;;;;7.43;3.07;;;;;;;;;;4360909;32;20419;-79
2021/05/02 04:31:11;;;;;;;6.47;3.10;;;;;;;;;;4360176;32;20632;-80
2021/05/02 04:33:44;;;;;;;5.60;3.03;;;;;;;;;;4360151;33;20166;-80
2021/05/02 04:36:09;;;;;;;9.77;3.30;;;;;;;;;;4360317;33;20206;-80
2021/05/02 04:38:34;;;;;;;7.00;3.00;;;;;;;;;;4359873;33;20135;-79
2021/05/02 04:41:03;;;;;;;7.83;3.10;;;;;;;;;;4359857;33;20178;-79
2021/05/02 04:43:28;;;;;;;8.37;3.03;;;;;;;;;;4359938;33;20170;-79
2021/05/02 04:45:54;;;;;;;9.30;3.10;;;;;;;;;;4361169;33;20132;-79
2021/05/02 04:48:19;;;;;;;5.83;2.33;;;;;;;;;;4346546;33;20221;-80
2021/05/02 04:50:45;;;;;;;5.27;2.60;;;;;;;;;;4360261;33;20579;-79
2021/05/02 04:53:13;;;;;;;10.27;3.57;;;;;;;;;;4359821;33;20139;-79
2021/05/02 04:55:38;;;;;;;5.47;2.53;;;;;;;;;;4360483;33;20189;-80
2021/05/02 04:58:06;;;;;;;7.00;2.67;;;;;;;;;;4360218;33;20513;-79
2021/05/02 05:00:36;;;;;;;7.63;2.67;;;;;;;;;;4359759;33;20165;-79
2021/05/02 05:03:05;;;;;;;7.60;2.47;;;;;;;;;;4359719;33;20516;-80
2021/05/02 05:05:31;;;;;;;4.30;2.43;;;;;;;;;;4359657;33;20623;-79
2021/05/02 05:07:56;;;;;;;6.73;2.80;;;;;;;;;;4360046;32;20135;-80
2021/05/02 05:10:24;;;;;;;9.50;3.23;;;;;;;;;;4362366;32;20135;-80
2021/05/02 05:12:52;;;;;;;8.13;2.80;;;;;;;;;;4363260;32;20136;-79
2021/05/02 05:15:18;;;;;;;10.57;4.33;;;;;;;;;;4362465;32;20269;-79
2021/05/02 05:17:43;;;;;;;7.63;2.30;;;;;;;;;;4363207;32;20146;-80
2021/05/02 05:20:09;;;;;;;5.60;2.50;;;;;;;;;;4362510;33;20603;-80
2021/05/02 05:22:34;;;;;;;5.90;2.30;;;;;;;;;;4363105;32;20131;-79
2021/05/02 05:24:59;;;;;;;9.93;2.50;;;;;;;;;;4362997;32;20218;-79
2021/05/02 05:27:25;;;;;;;5.23;2.60;;;;;;;;;;4363074;33;20135;-79
2021/05/02 05:29:50;;;;;;;5.47;2.40;;;;;;;;;;4363046;33;20136;-79
2021/05/02 05:32:15;;;;;;;6.30;2.60;;;;;;;;;;4362511;32;20152;-79
2021/05/02 05:34:40;;;;;;;7.40;2.03;;;;;;;;;;4348666;33;20152;-79
2021/05/02 05:37:09;;;;;;;3.60;2.40;;;;;;;;;;4362795;32;20153;-78
2021/05/02 05:39:34;;;;;;;11.10;2.77;;;;;;;;;;4348576;33;20155;-79
2021/05/02 05:41:59;;;;;;;5.70;2.50;;;;;;;;;;4362158;32;20444;-79
2021/05/02 05:44:25;;;;;;;7.80;2.67;;;;;;;;;;4362605;32;20564;-79
2021/05/02 05:46:50;;;;;;;6.03;2.20;;;;;;;;;;4363027;32;20123;-79
2021/05/02 05:49:18;;;;;;;6.03;2.37;;;;;;;;;;4360826;33;20182;-78
2021/05/02 05:51:43;;;;;;;4.57;2.10;;;;;;;;;;4348613;33;20186;-79
2021/05/02 05:54:09;;;;;;;5.13;2.40;;;;;;;;;;4362805;32;20230;-80
2021/05/02 05:56:35;;;;;;;5.20;2.13;;;;;;;;;;4362113;32;20161;-79
2021/05/02 05:59:00;;;;;;;5.43;2.03;;;;;;;;;;4362555;32;20198;-78
2021/05/02 06:01:26;;;;;;;4.97;2.03;;;;;;;;;;4362846;32;20143;-79
2021/05/02 06:03:51;;;;;;;3.40;2.03;;;;;;;;;;4363013;32;20207;-78
2021/05/02 06:06:17;;;;;;;6.57;1.97;;;;;;;;;;4361574;32;20154;-81
2021/05/02 06:08:42;;;;;;;3.33;1.60;;;;;;;;;;4362444;32;20611;-80
2021/05/02 06:11:07;;;;;;;4.90;2.00;;;;;;;;;;4362115;32;20198;-81
2021/05/02 06:13:32;;;;;;;4.30;2.00;;;;;;;;;;4361646;32;20170;-81
2021/05/02 06:15:57;;;;;;;6.47;2.10;;;;;;;;;;4348042;33;20171;-79
2021/05/02 06:18:23;;;;;;;6.30;2.20;;;;;;;;;;4361947;33;20171;-79
2021/05/02 06:20:48;;;;;;;6.53;2.10;;;;;;;;;;4362370;32;20128;-80
2021/05/02 06:23:13;;;;;;;4.83;1.90;;;;;;;;;;4362053;32;20209;-78
2021/05/02 06:25:39;;;;;;;5.47;1.80;;;;;;;;;;4348003;33;20186;-77
2021/05/02 06:28:04;;;;;;;4.77;2.33;;;;;;;;;;4348401;33;20159;-78
2021/05/02 06:30:29;;;;;;;4.80;2.30;;;;;;;;;;4362026;32;20155;-79
2021/05/02 06:32:54;;;;;;;6.60;2.17;;;;;;;;;;4361686;32;20165;-78
2021/05/02 06:35:20;;;;;;;5.40;2.47;;;;;;;;;;4361567;32;20491;-80
2021/05/02 06:37:45;;;;;;;7.47;2.73;;;;;;;;;;4361978;32;20123;-77
2021/05/02 06:40:10;;;;;;;6.17;1.90;;;;;;;;;;4362046;32;20178;-78
2021/05/02 06:42:36;;;;;;;3.10;2.00;;;;;;;;;;4347699;33;20167;-77
2021/05/02 06:45:01;;;;;;;6.57;2.00;;;;;;;;;;4348111;33;20159;-77
2021/05/02 06:47:26;;;;;;;3.40;1.37;;;;;;;;;;4362050;32;20223;-76
2021/05/02 06:49:51;;;;;;;4.13;1.63;;;;;;;;;;4361098;32;20147;-76
2021/05/02 06:52:17;;;;;;;3.90;1.40;;;;;;;;;;4361282;32;20538;-79
2021/05/02 06:54:45;;;;;;;5.10;1.70;;;;;;;;;;4361128;33;20551;-80
2021/05/02 06:57:11;;;;;;;4.50;1.40;;;;;;;;;;4361585;32;20489;-80
2021/05/02 06:59:36;;;;;;;4.80;1.57;;;;;;;;;;4361049;32;20132;-79
2021/05/02 07:02:02;;;;;;;4.13;1.50;;;;;;;;;;4362067;32;20464;-77
2021/05/02 07:04:31;;;;;;;3.70;1.57;;;;;;;;;;4361239;32;20259;-77
2021/05/02 07:06:56;;;;;;;2.83;1.30;;;;;;;;;;4361045;32;20139;-76
2021/05/02 07:09:22;;;;;;;3.23;1.33;;;;;;;;;;4361763;32;20502;-75
2021/05/02 07:11:47;;;;;;;5.93;1.40;;;;;;;;;;4361570;32;20205;-79
2021/05/02 07:14:12;;;;;;;5.93;1.60;;;;;;;;;;4361585;33;20166;-78
2021/05/02 07:16:37;;;;;;;3.87;1.70;;;;;;;;;;4361029;32;20135;-80
2021/05/02 07:19:04;;;;;;;3.20;1.70;;;;;;;;;;4360943;32;20510;-79
2021/05/02 07:21:29;;;;;;;4.60;1.50;;;;;;;;;;4347579;33;20158;-77
2021/05/02 07:23:54;;;;;;;3.87;1.43;;;;;;;;;;4361313;32;20185;-79
2021/05/02 07:26:21;;;;;;;3.30;1.60;;;;;;;;;;4347693;33;20162;-79
2021/05/02 07:28:46;;;;;;;4.33;1.37;;;;;;;;;;4361436;32;20411;-78
2021/05/02 07:31:12;;;;;;;4.90;1.40;;;;;;;;;;4359042;32;20190;-76
2021/05/02 07:33:38;;;;;;;3.30;1.40;;;;;;;;;;4360525;32;20612;-75
2021/05/02 07:36:03;;;;;;;3.10;1.30;;;;;;;;;;4360558;32;20745;-79
2021/05/02 07:38:28;;;;;;;4.63;1.43;;;;;;;;;;4361026;32;20213;-76
2021/05/02 07:40:55;;;;;;;4.70;1.63;;;;;;;;;;4346862;33;20177;-78
2021/05/02 07:43:20;;;;;;;2.50;1.30;;;;;;;;;;4359206;33;20159;-78
2021/05/02 07:45:47;;;;;;;3.83;1.17;;;;;;;;;;4360188;32;20598;-77
2021/05/02 07:48:13;;;;;;;4.03;1.60;;;;;;;;;;4361078;32;20139;-76
2021/05/02 07:50:38;;;;;;;2.05;1.20;;;;;;;;;;4358943;33;20159;-78
2021/05/02 07:53:04;;;;;;;2.27;1.60;;;;;;;;;;4360452;32;20143;-77
2021/05/02 07:55:30;;;;;;;3.80;1.60;;;;;;;;;;4360391;32;20178;-80
2021/05/02 07:57:58;;;;;;;2.00;1.40;;;;;;;;;;4361083;32;20178;-78
2021/05/02 08:00:23;;;;;;;2.62;1.30;;;;;;;;;;4360631;32;20179;-76
2021/05/02 08:02:48;;;;;;;4.90;1.98;;;;;;;;;;4359226;32;20158;-76
2021/05/02 08:05:13;;;;;;;4.80;1.30;;;;;;;;;;4359801;32;20135;-78
2021/05/02 08:07:39;;;;;;;3.83;1.50;;;;;;;;;;4360416;32;20472;-77
2021/05/02 08:10:07;;;;;;;2.17;1.50;;;;;;;;;;4360222;33;20545;-79
2021/05/02 08:12:33;;;;;;;2.67;1.40;;;;;;;;;;4360208;32;20223;-76
2021/05/02 08:14:58;;;;;;;2.22;1.40;;;;;;;;;;4359560;33;20177;-78
2021/05/02 08:17:23;;;;;;;3.55;1.50;;;;;;;;;;4346521;33;20163;-76
2021/05/02 08:19:49;;;;;;;1.67;1.37;;;;;;;;;;4360392;32;20544;-79
2021/05/02 08:22:15;;;;;;;1.95;1.50;;;;;;;;;;4360821;32;20127;-78
2021/05/02 08:24:40;;;;;;;3.03;1.48;;;;;;;;;;4346284;33;20175;-79
2021/05/02 08:27:05;;;;;;;3.47;1.50;;;;;;;;;;4359757;33;20195;-79
2021/05/02 08:29:34;;;;;;;3.22;1.80;;;;;;;;;;4360302;33;20131;-78
2021/05/02 08:31:59;;;;;;;3.45;1.40;;;;;;;;;;4356018;33;20170;-78
2021/05/02 08:34:24;;;;;;;4.03;1.48;;;;;;;;;;4370926;32;20155;-76
2021/05/02 08:36:49;;;;;;;3.80;1.70;;;;;;;;;;4359545;33;20310;-79
2021/05/02 08:39:14;;;;;;;3.15;1.52;;;;;;;;;;4359463;33;20127;-76
2021/05/02 08:41:40;;;;;;;2.37;1.40;;;;;;;;;;4359832;33;20266;-75
2021/05/02 08:44:06;;;;;;;3.20;1.05;;;;;;;;;;4359260;32;20229;-77
2021/05/02 08:46:31;;;;;;;3.72;1.75;;;;;;;;;;4363523;32;20181;-76
2021/05/02 08:48:57;;;;;;;6.97;1.50;;;;;;;;;;4362564;32;20146;-76
2021/05/02 08:51:23;;;;;;;2.83;1.75;;;;;;;;;;4363953;32;20165;-77
2021/05/02 08:53:48;;;;;;;3.60;1.80;;;;;;;;;;4377925;32;20158;-75
2021/05/02 08:56:13;;;;;;;3.35;1.67;;;;;;;;;;4378210;32;20170;-78
2021/05/02 08:58:39;;;;;;;4.63;1.87;;;;;;;;;;4378337;32;20123;-75
2021/05/02 09:01:05;;;;;;;3.27;1.60;;;;;;;;;;4368784;32;20179;-77
2021/05/02 09:03:50;;;;;;;2.50;1.20;;;;;;;;;;4363002;32;20182;-78
2021/05/02 09:06:17;;;;;;;2.10;1.50;;;;;;;;;;4363309;32;20158;-79
2021/05/02 09:08:49;;;;;;;2.47;1.37;;;;;;;;;;4362917;32;20153;-80
2021/05/02 09:11:33;;;;;;;3.83;1.50;;;;;;;;;;4363107;32;20140;-78
2021/05/02 09:14:01;;;;;;;3.40;1.90;;;;;;;;;;4362686;32;20166;-78
2021/05/02 09:16:48;;;;;;;2.33;1.50;;;;;;;;;;4361628;33;20158;-78
2021/05/02 09:19:14;;;;;;;2.57;1.50;;;;;;;;;;4362475;32;20181;-80
2021/05/02 09:21:40;;;;;;;2.20;1.50;;;;;;;;;;4362448;32;20575;-78
2021/05/02 09:24:08;;;;;;;2.77;1.43;;;;;;;;;;4362712;32;20135;-78
2021/05/02 09:26:40;;;;;;;3.97;1.80;;;;;;;;;;4362889;32;20161;-79
2021/05/02 09:29:06;;;;;;;2.53;1.77;;;;;;;;;;4362945;32;20123;-79
2021/05/02 09:31:37;;;;;;;3.07;2.00;;;;;;;;;;4362617;32;20529;-78
2021/05/02 09:34:19;;;;;;;3.47;2.13;;;;;;;;;;4362826;32;20147;-77
2021/05/02 09:37:13;;;;;;;4.87;1.97;;;;;;;;;;4361691;32;20182;-79
2021/05/02 09:39:47;;;;;;;3.33;1.50;;;;;;;;;;4361308;33;20159;-77
2021/05/02 09:42:17;;;;;;;3.50;1.40;;;;;;;;;;4362325;32;20134;-77
2021/05/02 09:44:45;;;;;;;3.13;1.40;;;;;;;;;;4362007;33;20162;-78
2021/05/02 09:47:19;;;;;;;2.30;1.57;;;;;;;;;;4362481;32;20529;-77
2021/05/02 09:50:04;;;;;;;2.23;1.60;;;;;;;;;;4362164;32;20151;-79
2021/05/02 09:52:56;;;;;;;1.52;1.30;;;;;;;;;;4362386;32;20170;-78
2021/05/02 09:55:26;;;;;;;3.12;1.87;;;;;;;;;;4361633;32;20536;-78
2021/05/02 10:00:57;;;;;;;3.30;1.70;;;;;;;;;;4361466;32;20213;-76
2021/05/02 10:03:24;;;;;;;1.85;1.40;;;;;;;;;;4361486;32;20553;-78
2021/05/02 10:06:11;;;;;;;2.40;1.58;;;;;;;;;;4362168;32;20131;-78
2021/05/02 10:08:42;;;;;;;1.73;1.10;;;;;;;;;;4362478;32;20177;-77
2021/05/02 10:11:14;;;;;;;2.53;1.20;;;;;;;;;;4361626;32;20128;-77
2021/05/02 10:13:40;;;;;;;3.63;1.40;;;;;;;;;;4372989;32;20644;-75
2021/05/02 10:16:05;;;;;;;3.83;1.15;;;;;;;;;;4361756;32;20158;-78
2021/05/02 10:18:31;;;;;;;3.13;1.13;;;;;;;;;;4362115;33;20206;-79
2021/05/02 10:21:01;;;;;;;2.25;1.20;;;;;;;;;;4360726;32;20147;-79
2021/05/02 10:23:26;;;;;;;2.10;1.20;;;;;;;;;;4362155;32;20147;-80
2021/05/02 10:25:57;;;;;;;2.22;0.95;;;;;;;;;;4361335;32;20123;-78
2021/05/02 10:28:26;;;;;;;1.65;1.00;;;;;;;;;;4361895;33;20154;-79
2021/05/02 10:30:53;;;;;;;2.47;1.30;;;;;;;;;;4361573;32;20174;-81
2021/05/02 10:33:38;;;;;;;1.87;1.35;;;;;;;;;;4360236;32;20198;-81
2021/05/02 10:36:03;;;;;;;3.15;1.37;;;;;;;;;;4360531;32;20182;-79
2021/05/02 10:38:45;;;;;;;2.03;1.02;;;;;;;;;;4360205;32;20177;-79
2021/05/02 10:41:28;;;;;;;3.53;1.20;;;;;;;;;;4361625;32;20257;-78
2021/05/02 10:43:56;;;;;;;2.40;1.08;;;;;;;;;;4361519;32;20532;-79
2021/05/02 10:46:40;;;;;;;2.72;1.10;;;;;;;;;;4360418;33;20155;-79
2021/05/02 10:49:08;;;;;;;3.47;1.20;;;;;;;;;;4361189;33;20128;-80
2021/05/02 10:51:34;;;;;;;4.07;1.15;;;;;;;;;;4359956;32;20217;-78
2021/05/02 10:54:07;;;;;;;2.90;1.00;;;;;;;;;;4361079;32;20147;-76
2021/05/02 10:56:46;;;;;;;2.53;1.20;;;;;;;;;;4361068;32;20217;-80
2021/05/02 10:59:12;;;;;;;2.37;1.50;;;;;;;;;;4360919;32;20127;-79
2021/05/02 11:01:37;;;;;;;2.08;1.17;;;;;;;;;;4361056;32;20127;-76
2021/05/02 11:04:03;;;;;;;1.33;1.00;;;;;;;;;;4360831;33;20166;-81
2021/05/02 11:06:38;;;;;;;1.85;1.08;;;;;;;;;;4360632;32;20202;-78
2021/05/02 11:09:04;;;;;;;2.35;1.12;;;;;;;;;;4360702;32;20138;-77
2021/05/02 11:11:32;;;;;;;2.92;1.20;;;;;;;;;;4371943;32;20238;-77
2021/05/02 11:14:10;;;;;;;3.37;1.80;;;;;;;;;;4361380;32;20132;-80
2021/05/02 11:16:36;;;;;;;1.48;1.17;;;;;;;;;;4360348;33;20221;-79
2021/05/02 11:19:02;;;;;;;2.95;1.05;;;;;;;;;;4361091;32;20169;-78
2021/05/02 11:24:17;;;;;;;1.65;0.90;;;;;;;;;;4354099;32;20171;-80
2021/05/02 11:29:52;;;;;;;1.83;1.10;;;;;;;;;;4360572;32;20131;-78
2021/05/02 11:32:30;;;;;;;2.20;1.10;;;;;;;;;;4360305;32;20573;-80
2021/05/02 11:35:00;;;;;;;2.87;1.05;;;;;;;;;;4359246;32;20185;-77
2021/05/02 11:37:44;;;;;;;1.90;1.30;;;;;;;;;;4360827;32;20151;-78
2021/05/02 11:40:18;;;;;;;4.37;1.05;;;;;;;;;;4360680;32;20201;-77
2021/05/02 11:42:50;;;;;;;2.87;1.60;;;;;;;;;;4359303;32;20181;-77
2021/05/02 11:45:17;;;;;;;4.82;1.52;;;;;;;;;;4360709;32;20529;-76
2021/05/02 11:47:42;;;;;;;3.45;1.30;;;;;;;;;;4360661;32;20470;-78
2021/05/02 11:50:08;;;;;;;2.12;1.30;;;;;;;;;;4360146;32;20158;-78
2021/05/02 11:52:43;;;;;;;1.40;1.20;;;;;;;;;;4358928;32;20190;-81
2021/05/02 11:55:29;;;;;;;2.87;1.20;;;;;;;;;;4360509;32;20130;-79
2021/05/02 11:57:55;;;;;;;2.92;1.30;;;;;;;;;;4360186;33;20225;-79
2021/05/02 12:00:39;;;;;;;2.50;1.25;;;;;;;;;;4361178;32;20213;-77
2021/05/02 12:03:05;;;;;;;2.45;1.33;;;;;;;;;;4358673;33;20296;-79
2021/05/02 12:05:30;;;;;;;1.73;1.10;;;;;;;;;;4360835;32;20532;-79
2021/05/02 12:08:09;;;;;;;2.22;1.25;;;;;;;;;;4360266;32;20127;-78
2021/05/02 12:10:34;;;;;;;4.18;1.35;;;;;;;;;;4360257;32;20255;-79
2021/05/02 12:13:00;;;;;;;1.95;1.12;;;;;;;;;;4360561;32;20402;-80
2021/05/02 12:15:25;;;;;;;2.72;1.20;;;;;;;;;;4360312;32;20162;-75
2021/05/02 12:17:51;;;;;;;1.40;0.80;;;;;;;;;;4359604;32;20430;-78
2021/05/02 12:20:23;;;;;;;2.70;1.10;;;;;;;;;;4360900;32;20225;-82
2021/05/02 12:22:51;;;;;;;1.50;0.90;;;;;;;;;;4359826;33;20127;-78
2021/05/02 12:25:17;;;;;;;1.95;1.05;;;;;;;;;;4360023;33;20197;-76
2021/05/02 12:27:58;;;;;;;1.87;0.90;;;;;;;;;;4359851;32;20135;-82
2021/05/02 12:30:26;;;;;;;3.92;0.88;;;;;;;;;;4359489;32;20485;-79
2021/05/02 12:32:53;;;;;;;2.55;0.80;;;;;;;;;;4358319;33;20147;-80
2021/05/02 12:35:24;;;;;;;0.80;0.70;;;;;;;;;;4359785;32;20210;-82
2021/05/02 12:37:49;;;;;;;1.45;0.80;;;;;;;;;;4358470;32;20155;-77
2021/05/02 12:40:15;;;;;;;4.83;1.50;;;;;;;;;;4358882;33;20181;-76
2021/05/02 12:42:40;;;;;;;1.62;0.85;;;;;;;;;;4359976;33;20666;-81
2021/05/02 12:45:07;;;;;;;1.10;0.70;;;;;;;;;;4360323;33;20131;-83
2021/05/02 12:47:38;;;;;;;3.28;0.90;;;;;;;;;;4359809;33;20218;-81
2021/05/02 12:50:05;;;;;;;1.73;0.80;;;;;;;;;;4360073;33;20166;-80
2021/05/02 12:52:46;;;;;;;1.58;0.88;;;;;;;;;;4360481;33;20628;-83
2021/05/02 12:55:32;;;;;;;1.75;1.00;;;;;;;;;;4359696;33;20153;-78
2021/05/02 12:58:01;;;;;;;2.00;0.90;;;;;;;;;;4358532;33;20572;-76
2021/05/02 13:00:32;;;;;;;2.83;1.05;;;;;;;;;;4369724;32;20156;-79
2021/05/02 13:02:58;;;;;;;1.27;0.90;;;;;;;;;;4371029;32;20237;-80
2021/05/02 13:05:24;;;;;;;1.85;0.80;;;;;;;;;;4359562;33;20229;-81
2021/05/02 13:07:52;;;;;;;1.90;0.70;;;;;;;;;;4359588;33;20127;-80
2021/05/02 13:10:21;;;;;;;3.10;1.48;;;;;;;;;;4359512;33;20443;-77
2021/05/02 13:12:54;;;;;;;1.60;0.80;;;;;;;;;;4359518;33;20139;-80
2021/05/02 13:15:23;;;;;;;2.58;1.20;;;;;;;;;;4359249;32;20583;-79
2021/05/02 13:17:59;;;;;;;2.35;0.90;;;;;;;;;;4359377;33;20128;-79
2021/05/02 13:20:24;;;;;;;1.77;0.90;;;;;;;;;;4359693;33;20568;-76
2021/05/02 13:22:49;;;;;;;1.33;0.90;;;;;;;;;;4359386;33;20153;-77
2021/05/02 13:25:23;;;;;;;1.90;0.93;;;;;;;;;;4359428;33;20127;-76
2021/05/02 13:27:50;;;;;;;1.33;0.90;;;;;;;;;;4360658;33;20158;-78
2021/05/02 13:30:15;;;;;;;1.30;0.80;;;;;;;;;;4360319;32;20163;-77
2021/05/02 13:32:59;;;;;;;1.02;0.80;;;;;;;;;;4362394;32;20195;-79
2021/05/02 13:35:26;;;;;;;2.53;0.70;;;;;;;;;;4361960;32;20193;-78
2021/05/02 13:37:51;;;;;;;1.83;0.80;;;;;;;;;;4373078;32;20163;-79
2021/05/02 13:40:18;;;;;;;1.20;0.75;;;;;;;;;;4361912;32;20169;-78
2021/05/02 13:42:43;;;;;;;1.42;0.95;;;;;;;;;;4361751;33;20635;-78
2021/05/02 13:45:09;;;;;;;1.77;1.08;;;;;;;;;;4361654;32;20135;-78
2021/05/02 13:47:34;;;;;;;2.20;0.80;;;;;;;;;;4361642;33;20205;-79
2021/05/02 13:49:59;;;;;;;2.30;0.75;;;;;;;;;;4361741;32;20166;-79
2021/05/02 13:52:25;;;;;;;2.35;0.82;;;;;;;;;;4362328;32;20139;-79
2021/05/02 13:54:57;;;;;;;2.55;0.88;;;;;;;;;;4361685;32;20139;-78
2021/05/02 13:57:22;;;;;;;1.23;0.90;;;;;;;;;;4362025;32;20198;-78
2021/05/02 13:59:47;;;;;;;2.83;1.00;;;;;;;;;;4361811;32;20140;-81
2021/05/02 14:02:13;;;;;;;1.67;0.90;;;;;;;;;;4361469;32;20229;-76
2021/05/02 14:04:44;;;;;;;1.65;0.90;;;;;;;;;;4362028;32;20230;-76
2021/05/02 14:07:09;;;;;;;2.35;0.82;;;;;;;;;;4362718;32;20135;-77
2021/05/02 14:09:35;;;;;;;2.05;0.88;;;;;;;;;;4361421;32;20135;-79
2021/05/02 14:12:00;;;;;;;2.37;0.80;;;;;;;;;;4361838;32;20491;-76
2021/05/02 14:14:25;;;;;;;1.90;0.77;;;;;;;;;;4361731;33;20135;-80
2021/05/02 14:16:53;;;;;;;0.98;0.70;;;;;;;;;;4361359;33;20139;-78
2021/05/02 14:19:21;;;;;;;1.27;0.70;;;;;;;;;;4361492;32;20135;-79
2021/05/02 14:21:46;;;;;;;4.72;1.00;;;;;;;;;;4362085;32;20158;-75
2021/05/02 14:24:11;;;;;;;2.58;1.12;;;;;;;;;;4361368;33;20197;-76
2021/05/02 14:26:37;;;;;;;1.58;0.90;;;;;;;;;;4361861;32;20306;-77
2021/05/02 14:29:03;;;;;;;2.40;0.90;;;;;;;;;;4361390;32;20583;-79
2021/05/02 14:31:28;;;;;;;1.80;0.85;;;;;;;;;;4360153;32;20167;-79
2021/05/02 14:33:53;;;;;;;2.25;0.90;;;;;;;;;;4360934;33;20243;-76
2021/05/02 14:36:19;;;;;;;2.62;1.17;;;;;;;;;;4360801;33;20169;-77
2021/05/02 14:38:44;;;;;;;3.12;1.20;;;;;;;;;;4359899;33;20250;-77
2021/05/02 14:41:09;;;;;;;2.50;0.80;;;;;;;;;;4361295;32;20197;-79
2021/05/02 14:43:34;;;;;;;1.00;0.80;;;;;;;;;;4361232;32;20169;-79
2021/05/02 14:46:01;;;;;;;1.40;0.90;;;;;;;;;;4361814;32;20135;-77
2021/05/02 14:48:26;;;;;;;2.62;1.10;;;;;;;;;;4361464;33;20193;-79
2021/05/02 14:50:51;;;;;;;2.00;0.80;;;;;;;;;;4361505;32;20135;-78
2021/05/02 14:53:16;;;;;;;1.20;0.80;;;;;;;;;;4361323;33;20134;-78
2021/05/02 14:55:42;;;;;;;1.27;0.70;;;;;;;;;;4361446;32;20266;-79
2021/05/02 14:58:07;;;;;;;3.17;1.20;;;;;;;;;;4361070;32;20139;-78
2021/05/02 15:00:32;;;;;;;2.12;1.00;;;;;;;;;;4361192;32;20147;-77